PTKK

Chuuk International Airport

Airport
ICAO code
PTKK
IATA Code
TKK
Summary
ICAO Region
APAC
Location

Weno, Chuuk

Serving
Chuuk
Elevation
11 ft
Coordinates
7° 27' 43" N , 151° 50' 35" E
KCC
Metar
Observation
PTKK 060252Z 00000KT 10SM -RA SCT010 OVC100 26/23 A2979 RMK SHRAE25 RAB25 SLP091 60025 8/12/ T02610230 57024
Station
Weno Island, Chuuk Int. Airp.
Date/Time
2022-10-06 02:52:00
Wind direction
Wind speed
00 kts
Lowest cloud amount
scattered clouds
Temperature
26.1°C
Dew point
23°C
Humidity
83%
Weather condition
light rain

Chuuk International Airport is an airport located on Weno (formerly Moen), the main island of the State of Chuuk (formerly Truk) in the Federated States of Micronesia.

Climatology

Tropical Savanna climate (Köppen climate classification Aw)

Runways

Designator Length Width Surface Rops
4/22 1831 46 ASP Yes/Yes

Airport map

Aerial View

SKYbrary Partners:

Safety knowledge contributed by: